^^
Saratoga-Weather Station Historical Data
Daily Summary for September 19, 2021 Units:  English    Metric   Both
Daily Weekly Monthly Yearly Custom
  High: Low: Average:
Temperature: 69.1 °F 53.4 °F 59.9 °F
Dew Point: 59 °F 51.6 °F 54.5 °F
Humidity: 94% 66% 83%
Wind Speed: 6.9mph 0mph 0.9mph
Wind Gust: 9mph - -
Wind- - SSE
Pressure: 29.9 in 29.9 in -
Precipitation: 0 in    
Historical Graphs
 
 
Tabular Data for September 19, 2021
Time Temperature Dew Point Pressure Wind Wind Speed Wind Gust Humidity Rainfall Rate (Hourly) solar
00:04 56.1 °F 53.2 °F 29.9 in Calm   1 mph 90% 0 in 0 W/m2
00:10 55.9 °F 53.1 °F 29.9 in South 0.9 mph 1 mph 90% 0 in 0 W/m2
00:15 55.9 °F 53.1 °F 29.9 in South 0.9 mph 2 mph 90% 0 in 0 W/m2
00:20 55.9 °F 53.1 °F 29.9 in Calm     90% 0 in 0 W/m2
00:25 55.9 °F 53.1 °F 29.9 in Calm     90% 0 in 0 W/m2
00:30 55.9 °F 53.1 °F 29.9 in Calm   2 mph 90% 0 in 0 W/m2
00:35 56.1 °F 53.2 °F 29.9 in Calm     90% 0 in 0 W/m2
00:40 56.1 °F 53.2 °F 29.9 in Calm   2 mph 90% 0 in 0 W/m2
00:45 56.5 °F 53.6 °F 29.9 in Calm   2 mph 90% 0 in 0 W/m2
00:50 56.5 °F 53.2 °F 29.9 in Calm     89% 0 in 0 W/m2
00:55 56.5 °F 53.2 °F 29.9 in Calm   2 mph 89% 0 in 0 W/m2
01:00 56.5 °F 53.2 °F 29.9 in Calm   1 mph 89% 0 in 0 W/m2
01:05 56.5 °F 53.2 °F 29.9 in WNW 0.9 mph 1 mph 89% 0 in 0 W/m2
01:10 56.7 °F 53.4 °F 29.9 in Calm   1 mph 89% 0 in 0 W/m2
01:15 56.7 °F 53.4 °F 29.9 in WNW 0.9 mph 1 mph 89% 0 in 0 W/m2
01:20 56.7 °F 53.4 °F 29.9 in Calm     89% 0 in 0 W/m2
01:25 56.7 °F 53.4 °F 29.9 in Calm     89% 0 in 0 W/m2
01:30 56.7 °F 53.4 °F 29.9 in Calm     89% 0 in 0 W/m2
01:35 56.7 °F 53.4 °F 29.9 in Calm     89% 0 in 0 W/m2
01:40 56.5 °F 53.2 °F 29.9 in Calm     89% 0 in 0 W/m2
01:45 56.5 °F 53.2 °F 29.9 in Calm     89% 0 in 0 W/m2
01:50 56.3 °F 53.1 °F 29.9 in Calm     89% 0 in 0 W/m2
01:55 56.1 °F 52.9 °F 29.9 in Calm     89% 0 in 0 W/m2
02:00 55.9 °F 52.7 °F 29.9 in Calm     89% 0 in 0 W/m2
02:05 55.9 °F 53.1 °F 29.9 in Calm     90% 0 in 0 W/m2
02:10 55.8 °F 52.9 °F 29.9 in Calm   2 mph 90% 0 in 0 W/m2
02:15 55.8 °F 52.9 °F 29.9 in Calm   1 mph 90% 0 in 0 W/m2
02:20 55.8 °F 52.9 °F 29.9 in Calm     90% 0 in 0 W/m2
02:25 55.6 °F 52.7 °F 29.9 in Calm   2 mph 90% 0 in 0 W/m2
02:30 55.6 °F 53.1 °F 29.9 in Calm     91% 0 in 0 W/m2
02:35 55.4 °F 52.9 °F 29.9 in Calm     91% 0 in 0 W/m2
02:40 55.4 °F 52.9 °F 29.9 in Calm     91% 0 in 0 W/m2
02:45 55.2 °F 52.7 °F 29.9 in Calm     91% 0 in 0 W/m2
02:50 55.2 °F 52.7 °F 29.9 in Calm     91% 0 in 0 W/m2
02:55 55 °F 52.5 °F 29.9 in Calm     91% 0 in 0 W/m2
03:00 55 °F 52.7 °F 29.9 in Calm     92% 0 in 0 W/m2
03:05 55 °F 52.7 °F 29.9 in WNW 0.9 mph 2 mph 92% 0 in 0 W/m2
03:10 54.9 °F 52.5 °F 29.9 in WNW 2 mph 2 mph 92% 0 in 0 W/m2
03:15 54.9 °F 52.5 °F 29.9 in Calm     92% 0 in 0 W/m2
03:20 54.9 °F 52.5 °F 29.9 in Calm     92% 0 in 0 W/m2
03:25 54.9 °F 52.5 °F 29.9 in Calm     92% 0 in 0 W/m2
03:30 54.7 °F 52.3 °F 29.9 in Calm   1 mph 92% 0 in 0 W/m2
03:35 54.7 °F 52.3 °F 29.9 in Calm     92% 0 in 0 W/m2
03:40 54.7 °F 52.7 °F 29.9 in Calm   3 mph 93% 0 in 0 W/m2
03:45 54.7 °F 52.7 °F 29.9 in Calm   2 mph 93% 0 in 0 W/m2
03:50 54.7 °F 52.7 °F 29.9 in SW 0.9 mph 3 mph 93% 0 in 0 W/m2
03:55 54.5 °F 52.5 °F 29.9 in Calm   1 mph 93% 0 in 0 W/m2
04:01 54.3 °F 52.3 °F 29.9 in Calm   1 mph 93% 0 in 0 W/m2
04:06 54.3 °F 52.3 °F 29.9 in Calm   1 mph 93% 0 in 0 W/m2
04:11 54.3 °F 52.3 °F 29.9 in Calm     93% 0 in 0 W/m2
04:16 54.3 °F 52.3 °F 29.9 in Calm     93% 0 in 0 W/m2
04:21 54.3 °F 52.3 °F 29.9 in Calm     93% 0 in 0 W/m2
04:26 54.3 °F 52.3 °F 29.9 in Calm     93% 0 in 0 W/m2
04:31 54.3 °F 52.3 °F 29.9 in Calm     93% 0 in 0 W/m2
04:36 54.3 °F 52.3 °F 29.9 in Calm     93% 0 in 0 W/m2
04:41 54.5 °F 52.5 °F 29.9 in Calm   1 mph 93% 0 in 0 W/m2
04:46 54.5 °F 52.5 °F 29.9 in Calm   1 mph 93% 0 in 0 W/m2
04:51 54.3 °F 52.3 °F 29.9 in Calm     93% 0 in 0 W/m2
04:56 54.3 °F 52.3 °F 29.9 in Calm     93% 0 in 0 W/m2
05:01 54.1 °F 52.2 °F 29.9 in Calm     93% 0 in 0 W/m2
05:06 54.1 °F 52.2 °F 29.9 in SW 0.9 mph 2 mph 93% 0 in 0 W/m2
05:11 54.1 °F 52.2 °F 29.9 in SW 0.9 mph 2 mph 93% 0 in 0 W/m2
05:16 54 °F 52 °F 29.9 in Calm     93% 0 in 0 W/m2
05:21 54 °F 52 °F 29.9 in Calm   1 mph 93% 0 in 0 W/m2
05:26 54 °F 52 °F 29.9 in Calm     93% 0 in 0 W/m2
05:31 53.8 °F 51.8 °F 29.9 in Calm     93% 0 in 0 W/m2
05:36 53.8 °F 51.8 °F 29.9 in Calm     93% 0 in 0 W/m2
05:41 53.8 °F 52.2 °F 29.9 in Calm   1 mph 94% 0 in 0 W/m2
05:46 53.8 °F 52.2 °F 29.9 in Calm     94% 0 in 0 W/m2
05:51 53.8 °F 52.2 °F 29.9 in SW 1 mph 1 mph 94% 0 in 0 W/m2
05:56 53.8 °F 52.2 °F 29.9 in Calm     94% 0 in 0 W/m2
06:01 53.6 °F 52 °F 29.9 in Calm   2 mph 94% 0 in 0 W/m2
06:06 53.6 °F 52 °F 29.9 in Calm     94% 0 in 0 W/m2
06:11 53.8 °F 52.2 °F 29.9 in Calm     94% 0 in 0 W/m2
06:16 54 °F 52.3 °F 29.9 in Calm   1 mph 94% 0 in 0 W/m2
06:21 54 °F 52.3 °F 29.9 in Calm   1 mph 94% 0 in 0 W/m2
06:26 54 °F 52.3 °F 29.9 in SW 0.9 mph 1 mph 94% 0 in 0 W/m2
06:31 54 °F 52.3 °F 29.9 in Calm     94% 0 in 0 W/m2
06:36 54 °F 52.3 °F 29.9 in SW 0.9 mph 2 mph 94% 0 in 0 W/m2
06:41 53.8 °F 51.8 °F 29.9 in Calm   1 mph 93% 0 in 0 W/m2
06:46 53.6 °F 52 °F 29.9 in Calm   1 mph 94% 0 in 0 W/m2
06:51 53.4 °F 51.8 °F 29.9 in Calm     94% 0 in 0 W/m2
06:56 53.6 °F 52 °F 29.9 in Calm     94% 0 in 0 W/m2
07:01 53.6 °F 52 °F 29.9 in Calm   1 mph 94% 0 in 0 W/m2
07:06 53.8 °F 52.2 °F 29.9 in Calm   2 mph 94% 0 in 0 W/m2
07:11 53.8 °F 52.2 °F 29.9 in Calm     94% 0 in 0 W/m2
07:16 54 °F 52.3 °F 29.9 in Calm   2 mph 94% 0 in 5 W/m2
07:21 53.8 °F 51.8 °F 29.9 in Calm     93% 0 in 5 W/m2
07:26 53.8 °F 51.8 °F 29.9 in Calm     93% 0 in 11 W/m2
07:31 53.6 °F 51.6 °F 29.9 in Calm   1 mph 93% 0 in 14 W/m2
07:36 53.4 °F 51.8 °F 29.9 in Calm     94% 0 in 16 W/m2
07:41 53.6 °F 52 °F 29.9 in Calm     94% 0 in 19 W/m2
07:46 53.6 °F 52 °F 29.9 in Calm     94% 0 in 25 W/m2
07:51 53.8 °F 52.2 °F 29.9 in Calm     94% 0 in 28 W/m2
07:56 53.8 °F 52.2 °F 29.9 in SSW 0.9 mph 2 mph 94% 0 in 32 W/m2
08:01 54 °F 52.3 °F 29.9 in SSW 0.9 mph 1 mph 94% 0 in 33 W/m2
08:06 54 °F 52 °F 29.9 in Calm   1 mph 93% 0 in 35 W/m2
08:11 54.1 °F 52.2 °F 29.9 in Calm     93% 0 in 35 W/m2
08:16 54.1 °F 52.2 °F 29.9 in NNW 0.9 mph 2 mph 93% 0 in 40 W/m2
08:21 54.3 °F 52.3 °F 29.9 in NNE 0.9 mph 2 mph 93% 0 in 42 W/m2
08:26 54.3 °F 52.3 °F 29.9 in ENE 2 mph 2 mph 93% 0 in 47 W/m2
08:31 54.7 °F 52.3 °F 29.9 in Calm     92% 0 in 93 W/m2
08:36 54.9 °F 52.5 °F 29.9 in NW 0.9 mph 3 mph 92% 0 in 81 W/m2
08:41 55.2 °F 52.9 °F 29.9 in NE 0.9 mph 1 mph 92% 0 in 63 W/m2
08:46 55.4 °F 52.9 °F 29.9 in Calm   1 mph 91% 0 in 70 W/m2
08:51 55.6 °F 53.1 °F 29.9 in Calm   2 mph 91% 0 in 77 W/m2
08:56 55.8 °F 52.9 °F 29.9 in Calm   2 mph 90% 0 in 83 W/m2
09:01 55.9 °F 53.1 °F 29.9 in NE 0.9 mph 2 mph 90% 0 in 113 W/m2
09:06 56.3 °F 53.1 °F 29.9 in ENE 0.9 mph 2 mph 89% 0 in 111 W/m2
09:11 56.5 °F 53.2 °F 29.9 in Calm   1 mph 89% 0 in 176 W/m2
09:16 56.8 °F 53.6 °F 29.9 in ESE 2 mph 3 mph 89% 0 in 199 W/m2
09:21 57 °F 53.4 °F 29.9 in ESE 4 mph 5 mph 88% 0 in 183 W/m2
09:26 57.6 °F 53.8 °F 29.9 in NE 0.9 mph 2 mph 87% 0 in 142 W/m2
09:31 57.7 °F 53.6 °F 29.9 in ENE 0.9 mph 5 mph 86% 0 in 127 W/m2
09:36 57.7 °F 53.2 °F 29.9 in North 2.9 mph 4 mph 85% 0 in 127 W/m2
09:41 57.7 °F 53.2 °F 29.9 in Calm   2 mph 85% 0 in 167 W/m2
09:46 57.9 °F 53.8 °F 29.9 in East 2.9 mph 3 mph 86% 0 in 176 W/m2
09:51 57.9 °F 53.4 °F 29.9 in ENE 2 mph 4 mph 85% 0 in 279 W/m2
09:56 58.3 °F 53.8 °F 29.9 in NNW 2 mph 3 mph 85% 0 in 297 W/m2
10:01 58.6 °F 54.1 °F 29.9 in NW 2 mph 2 mph 85% 0 in 345 W/m2
10:06 59.2 °F 54.3 °F 29.9 in Calm   2 mph 84% 0 in 327 W/m2
10:11 59.5 °F 54.7 °F 29.9 in ESE 0.9 mph 1 mph 84% 0 in 345 W/m2
10:16 60.1 °F 54.9 °F 29.9 in ESE 2 mph 3 mph 83% 0 in 330 W/m2
10:21 60.4 °F 54.5 °F 29.9 in ENE 0.9 mph 3 mph 81% 0 in 378 W/m2
10:26 60.6 °F 54.7 °F 29.9 in ESE 6.9 mph 9 mph 81% 0 in 329 W/m2
10:31 60.8 °F 54.7 °F 29.9 in SSE 0.9 mph 3 mph 80% 0 in 434 W/m2
10:36 61.2 °F 54.9 °F 29.9 in ESE 2 mph 3 mph 80% 0 in 422 W/m2
10:41 61.5 °F 54.9 °F 29.9 in East 4 mph 8 mph 79% 0 in 424 W/m2
10:46 62.1 °F 55 °F 29.9 in NE 4 mph 4 mph 78% 0 in 411 W/m2
10:51 62.1 °F 54.7 °F 29.9 in NE 2 mph 8 mph 77% 0 in 399 W/m2
10:56 62.2 °F 54.9 °F 29.9 in East 0.9 mph 2 mph 77% 0 in 404 W/m2
11:01 62.4 °F 55 °F 29.9 in ESE 2.9 mph 3 mph 77% 0 in 450 W/m2
11:14 63.5 °F 55.4 °F 29.9 in ENE 2 mph 4 mph 75% 0 in 497 W/m2
11:19 63.7 °F 55.2 °F 29.9 in East 2.9 mph 3 mph 74% 0 in 476 W/m2
11:24 63.9 °F 55.4 °F 29.9 in East 4 mph 5 mph 74% 0 in 538 W/m2
11:29 64 °F 55.2 °F 29.9 in East 2 mph 6 mph 73% 0 in 512 W/m2
11:34 64.2 °F 55.8 °F 29.9 in ENE 2.9 mph 3 mph 74% 0 in 517 W/m2
11:39 64.6 °F 55.4 °F 29.9 in SW 4 mph 6 mph 72% 0 in 548 W/m2
11:44 64.8 °F 55.6 °F 29.9 in East 2 mph 6 mph 72% 0 in 552 W/m2
11:49 64.9 °F 55.8 °F 29.9 in NE 2 mph 6 mph 72% 0 in 462 W/m2
11:54 65.1 °F 55.9 °F 29.9 in East 4 mph 4 mph 72% 0 in 524 W/m2
11:59 65.5 °F 55.8 °F 29.9 in SW 4 mph 6 mph 71% 0 in 292 W/m2
12:04 65.3 °F 56.1 °F 29.9 in ESE 2 mph 3 mph 72% 0 in 605 W/m2
12:09 65.8 °F 56.5 °F 29.9 in NE 0.9 mph 3 mph 72% 0 in 557 W/m2
12:14 66 °F 55.9 °F 29.9 in ESE 2 mph 4 mph 70% 0 in 610 W/m2
12:19 66 °F 55.9 °F 29.9 in NE 0.9 mph 5 mph 70% 0 in 548 W/m2
12:24 66 °F 55.9 °F 29.9 in Calm   3 mph 70% 0 in 265 W/m2
12:29 65.8 °F 55.8 °F 29.9 in Calm   3 mph 70% 0 in 209 W/m2
12:34 65.8 °F 56.1 °F 29.9 in ENE 0.9 mph 3 mph 71% 0 in 596 W/m2
12:39 66 °F 56.7 °F 29.9 in ENE 0.9 mph 3 mph 72% 0 in 601 W/m2
12:45 66.2 °F 56.1 °F 29.9 in East 4 mph 4 mph 70% 0 in 566 W/m2
12:50 66 °F 55.6 °F 29.9 in East 0.9 mph 4 mph 69% 0 in 243 W/m2
12:55 65.8 °F 55.8 °F 29.9 in ESE 0.9 mph 3 mph 70% 0 in 220 W/m2
13:00 65.7 °F 55.9 °F 29.9 in East 0.9 mph 4 mph 71% 0 in 276 W/m2
13:05 65.5 °F 55.8 °F 29.9 in Calm   2 mph 71% 0 in 299 W/m2
13:10 65.7 °F 56.3 °F 29.9 in Calm   2 mph 72% 0 in 464 W/m2
13:15 65.8 °F 56.5 °F 29.9 in ENE 0.9 mph 4 mph 72% 0 in 448 W/m2
13:20 66.6 °F 56.8 °F 29.9 in East 4 mph 4 mph 71% 0 in 628 W/m2
13:25 66.7 °F 56.3 °F 29.9 in ENE 0.9 mph 3 mph 69% 0 in 315 W/m2
13:30 66.6 °F 56.1 °F 29.9 in Calm   6 mph 69% 0 in 253 W/m2
13:35 66.6 °F 56.8 °F 29.9 in SE 2 mph 5 mph 71% 0 in 348 W/m2
13:40 66.9 °F 57.2 °F 29.9 in East 2 mph 6 mph 71% 0 in 712 W/m2
13:45 66.9 °F 56.5 °F 29.9 in ENE 0.9 mph 5 mph 69% 0 in 230 W/m2
13:50 66.9 °F 56.5 °F 29.9 in Calm   6 mph 69% 0 in 218 W/m2
13:55 66.9 °F 57.2 °F 29.9 in Calm   1 mph 71% 0 in 494 W/m2
14:00 66.9 °F 57.2 °F 29.9 in ESE 2.9 mph 3 mph 71% 0 in 599 W/m2
14:05 67.3 °F 57.2 °F 29.9 in NNW 0.9 mph 2 mph 70% 0 in 622 W/m2
14:10 67.6 °F 57 °F 29.9 in ESE 0.9 mph 3 mph 69% 0 in 360 W/m2
14:15 67.6 °F 57 °F 29.9 in SSE 0.9 mph 3 mph 69% 0 in 207 W/m2
14:20 67.6 °F 56.3 °F 29.9 in ENE 2 mph 4 mph 67% 0 in 200 W/m2
14:25 67.6 °F 56.7 °F 29.9 in ENE 0.9 mph 3 mph 68% 0 in 248 W/m2
14:30 67.5 °F 56.1 °F 29.9 in Calm   1 mph 67% 0 in 362 W/m2
14:35 67.6 °F 56.3 °F 29.9 in Calm   2 mph 67% 0 in 526 W/m2
14:40 68.2 °F 57.2 °F 29.9 in NE 4 mph 6 mph 68% 0 in 229 W/m2
14:45 67.8 °F 56.5 °F 29.9 in East 0.9 mph 4 mph 67% 0 in 207 W/m2
14:50 67.6 °F 56.3 °F 29.9 in NE 5 mph 5 mph 67% 0 in 211 W/m2
14:55 67.6 °F 56.3 °F 29.9 in Calm   3 mph 67% 0 in 248 W/m2
15:00 67.6 °F 56.3 °F 29.9 in ESE 4 mph 4 mph 67% 0 in 243 W/m2
15:05 67.6 °F 55.9 °F 29.9 in NE 0.9 mph 2 mph 66% 0 in 315 W/m2
15:10 67.8 °F 56.1 °F 29.9 in Calm   3 mph 66% 0 in 274 W/m2
15:15 68 °F 56.7 °F 29.9 in ESE 0.9 mph 4 mph 67% 0 in 332 W/m2
15:20 68.2 °F 57.6 °F 29.9 in NNE 6 mph 6 mph 69% 0 in 246 W/m2
15:25 68.4 °F 57.4 °F 29.9 in East 0.9 mph 3 mph 68% 0 in 199 W/m2
15:30 68.2 °F 56.8 °F 29.9 in Calm   3 mph 67% 0 in 202 W/m2
15:35 67.8 °F 57.7 °F 29.9 in Calm   2 mph 70% 0 in 243 W/m2
15:40 67.8 °F 58.1 °F 29.9 in East 0.9 mph 1 mph 71% 0 in 422 W/m2
15:45 68.2 °F 58.8 °F 29.9 in East 2.9 mph 3 mph 72% 0 in 657 W/m2
15:50 68.4 °F 58.6 °F 29.9 in South 0.9 mph 2 mph 71% 0 in 675 W/m2
15:55 68.7 °F 58.5 °F 29.9 in Calm   4 mph 70% 0 in 457 W/m2
16:00 69.1 °F 58.8 °F 29.9 in SE 2.9 mph 6 mph 70% 0 in 536 W/m2
16:05 68.9 °F 57.9 °F 29.9 in Calm   6 mph 68% 0 in 214 W/m2
16:10 68.7 °F 58.1 °F 29.9 in SSW 2 mph 3 mph 69% 0 in 236 W/m2
16:15 68.7 °F 58.5 °F 29.9 in WSW 2 mph 6 mph 70% 0 in 287 W/m2
16:20 68.5 °F 57.9 °F 29.9 in West 0.9 mph 2 mph 69% 0 in 418 W/m2
16:26 68.5 °F 57.9 °F 29.9 in Calm   4 mph 69% 0 in 262 W/m2
16:31 68.5 °F 57.6 °F 29.9 in West 0.9 mph 5 mph 68% 0 in 223 W/m2
16:36 68.5 °F 58.3 °F 29.9 in WNW 0.9 mph 3 mph 70% 0 in 403 W/m2
16:41 68.5 °F 58.3 °F 29.9 in East 6 mph 6 mph 70% 0 in 330 W/m2
16:46 68.2 °F 58.1 °F 29.9 in ENE 0.9 mph 4 mph 70% 0 in 292 W/m2
16:51 67.8 °F 58.1 °F 29.9 in East 0.9 mph 4 mph 71% 0 in 158 W/m2
16:56 67.5 °F 58.1 °F 29.9 in East 0.9 mph 3 mph 72% 0 in 193 W/m2
17:01 67.3 °F 57.9 °F 29.9 in Calm   4 mph 72% 0 in 179 W/m2
17:06 67.3 °F 58.3 °F 29.9 in ESE 0.9 mph 2 mph 73% 0 in 167 W/m2
17:11 67.3 °F 58.6 °F 29.9 in Calm   4 mph 74% 0 in 253 W/m2
17:16 67.3 °F 58.6 °F 29.9 in WNW 0.9 mph 3 mph 74% 0 in 160 W/m2
17:21 67.1 °F 58.8 °F 29.9 in Calm   4 mph 75% 0 in 139 W/m2
17:26 66.9 °F 57.9 °F 29.9 in SW 0.9 mph 3 mph 73% 0 in 179 W/m2
17:31 66.7 °F 58.1 °F 29.9 in NNW 0.9 mph 2 mph 74% 0 in 127 W/m2
17:36 66.7 °F 58.1 °F 29.9 in WNW 2 mph 2 mph 74% 0 in 171 W/m2
17:41 66.6 °F 58.5 °F 29.9 in Calm   1 mph 75% 0 in 244 W/m2
17:46 66.7 °F 58.6 °F 29.9 in WNW 2 mph 3 mph 75% 0 in 251 W/m2
17:51 66.9 °F 58.8 °F 29.9 in Calm   2 mph 75% 0 in 225 W/m2
17:56 67.1 °F 58.5 °F 29.9 in WSW 2 mph 3 mph 74% 0 in 178 W/m2
18:01 67.3 °F 59 °F 29.9 in West 2 mph 2 mph 75% 0 in 130 W/m2
18:06 67.1 °F 58.5 °F 29.9 in WNW 2 mph 3 mph 74% 0 in 120 W/m2
Juneau County Weather
Compliments of Weather Underground - 2 mb